Time;durP1;ratioP1;P1;durP2;ratioP2;P2;SDS_P1;SDS_P2;PMS_P1;PMS_P2;Temp;Humidity;BMP_temperature;BMP_pressure;BME280_temperature;BME280_humidity;BME280_pressure;Samples;Min_cycle;Max_cycle;Signal;HPM_P1;HPM_P2
2022/11/19 00:01:41;;;;;;;8.33;3.57;;;9.00;99.90;;;;;;4988941;28;20218;-71
2022/11/19 00:04:07;;;;;;;7.10;3.60;;;8.90;99.10;;;;;;4987222;28;20196;-73
2022/11/19 00:06:32;;;;;;;5.07;3.70;;;9.00;99.10;;;;;;4981022;28;20200;-71
2022/11/19 00:08:58;;;;;;;8.33;4.57;;;9.00;99.70;;;;;;4991348;28;20294;-74
2022/11/19 00:14:12;;;;;;;8.17;4.63;;;9.20;99.90;;;;;;4989329;28;20351;-71
2022/11/19 00:16:37;;;;;;;9.80;4.77;;;9.20;99.90;;;;;;4981655;28;21018;-72
2022/11/19 00:19:04;;;;;;;9.73;5.43;;;9.30;99.90;;;;;;4985189;28;20564;-71
2022/11/19 00:21:29;;;;;;;9.90;4.53;;;9.30;99.90;;;;;;4978236;28;20669;-71
2022/11/19 00:23:55;;;;;;;8.50;5.10;;;9.30;99.80;;;;;;4988299;28;20433;-72
2022/11/19 00:26:21;;;;;;;12.50;4.33;;;9.20;97.90;;;;;;4991401;28;20210;-72
2022/11/19 00:28:46;;;;;;;8.00;4.30;;;9.20;99.20;;;;;;4991511;28;20755;-71
2022/11/19 00:31:14;;;;;;;9.07;4.93;;;9.10;99.10;;;;;;4986273;28;20187;-71
2022/11/19 00:33:41;;;;;;;15.13;4.27;;;9.10;99.10;;;;;;4988124;28;20179;-72
2022/11/19 00:36:09;;;;;;;6.57;4.20;;;9.00;97.90;;;;;;4978816;28;20594;-72
2022/11/19 00:38:35;;;;;;;12.10;4.90;;;9.00;99.10;;;;;;4987513;28;20433;-74
2022/11/19 00:41:01;;;;;;;9.30;4.23;;;9.00;99.10;;;;;;4982709;28;20527;-73
2022/11/19 00:46:11;;;;;;;8.27;5.10;;;9.00;97.90;;;;;;4991383;28;20218;-73
2022/11/19 00:48:39;;;;;;;7.20;4.40;;;9.00;99.10;;;;;;4983557;28;20427;-72
2022/11/19 00:51:07;;;;;;;11.80;5.33;;;8.90;99.00;;;;;;4989427;28;20230;-71
2022/11/19 00:53:32;;;;;;;10.07;5.23;;;8.90;99.60;;;;;;4994869;28;20425;-73
2022/11/19 00:58:27;;;;;;;9.97;5.57;;;9.00;99.90;;;;;;4982178;28;20242;-72
2022/11/19 01:00:53;;;;;;;9.40;5.67;;;9.00;99.90;;;;;;4987256;28;20473;-70
2022/11/19 01:03:18;;;;;;;14.20;5.70;;;9.00;99.90;;;;;;4985157;28;20461;-72
2022/11/19 01:05:44;;;;;;;9.73;5.80;;;9.00;99.90;;;;;;4991402;28;20261;-72
2022/11/19 01:08:10;;;;;;;9.40;5.47;;;9.00;99.90;;;;;;4990653;28;20280;-71
2022/11/19 01:10:36;;;;;;;13.17;5.70;;;9.00;99.90;;;;;;4984268;28;20175;-71
2022/11/19 01:15:49;;;;;;;9.70;5.70;;;9.10;99.90;;;;;;4979764;28;20529;-72
2022/11/19 01:18:16;;;;;;;15.70;6.70;;;9.00;99.90;;;;;;4988724;28;20960;-72
2022/11/19 01:20:43;;;;;;;12.13;6.43;;;9.00;99.90;;;;;;4988808;28;20581;-72
2022/11/19 01:23:08;;;;;;;11.30;5.93;;;9.00;99.90;;;;;;4985889;28;20462;-71
2022/11/19 01:25:35;;;;;;;11.20;6.33;;;9.00;99.90;;;;;;4990977;28;21037;-71
2022/11/19 01:28:00;;;;;;;10.20;6.20;;;8.90;97.80;;;;;;4981742;28;20187;-71
2022/11/19 01:30:26;;;;;;;10.20;6.30;;;8.90;99.90;;;;;;4984210;28;20537;-71
2022/11/19 01:32:51;;;;;;;10.20;6.43;;;8.90;99.90;;;;;;4980669;28;20570;-70
2022/11/19 01:35:17;;;;;;;8.40;5.73;;;8.90;99.50;;;;;;4981499;28;20183;-71
2022/11/19 01:37:43;;;;;;;10.53;6.37;;;8.90;97.90;;;;;;4989083;28;20207;-71
2022/11/19 01:40:09;;;;;;;15.97;6.47;;;8.90;99.90;;;;;;4984223;28;20206;-71
2022/11/19 01:42:50;;;;;;;11.33;6.60;;;9.00;99.90;;;;;;4985372;28;20597;-71
2022/11/19 01:45:39;;;;;;;11.73;6.40;;;9.00;99.90;;;;;;4986170;28;20434;-71
2022/11/19 01:48:19;;;;;;;11.00;6.57;;;9.00;99.90;;;;;;4973804;28;20786;-71
2022/11/19 01:50:55;;;;;;;16.73;7.53;;;9.00;99.90;;;;;;4988922;28;20438;-71
2022/11/19 01:53:22;;;;;;;11.87;6.90;;;9.00;99.90;;;;;;4981393;28;20793;-72
2022/11/19 01:55:49;;;;;;;10.90;7.17;;;8.90;99.90;;;;;;4983042;28;20422;-71
2022/11/19 01:58:19;;;;;;;14.00;7.50;;;8.90;99.90;;;;;;4975785;28;20839;-71
2022/11/19 02:00:45;;;;;;;13.17;6.70;;;8.90;99.90;;;;;;4988809;28;20980;-71
2022/11/19 02:03:12;;;;;;;11.77;6.87;;;8.80;99.90;;;;;;4989800;28;20473;-72
2022/11/19 02:05:40;;;;;;;13.33;6.83;;;8.80;99.90;;;;;;4989348;28;20945;-71
2022/11/19 02:08:08;;;;;;;11.43;6.60;;;8.80;99.90;;;;;;4983711;28;20493;-72
2022/11/19 02:11:08;;;;;;;16.37;6.80;;;8.80;99.90;;;;;;4983973;28;20422;-71
2022/11/19 02:13:59;;;;;;;10.57;6.33;;;8.70;99.90;;;;;;4982226;28;20473;-71
2022/11/19 02:16:37;;;;;;;16.10;7.37;;;8.70;99.90;;;;;;4970270;28;21028;-71
2022/11/19 02:19:32;;;;;;;10.80;6.60;;;8.70;99.90;;;;;;4980117;28;20503;-71
2022/11/19 02:22:22;;;;;;;11.93;6.90;;;8.60;99.90;;;;;;4988751;28;20804;-71
2022/11/19 02:24:53;;;;;;;15.20;6.83;;;8.50;99.90;;;;;;4979091;28;20427;-72
2022/11/19 02:27:34;;;;;;;12.53;6.67;;;8.50;99.90;;;;;;4983349;28;20487;-71
2022/11/19 02:30:04;;;;;;;16.80;7.20;;;8.50;99.90;;;;;;4985909;28;20422;-72
2022/11/19 02:32:44;;;;;;;11.37;6.70;;;8.60;99.90;;;;;;4989497;28;20449;-71
2022/11/19 02:35:19;;;;;;;12.80;6.40;;;8.70;99.90;;;;;;4973004;28;20442;-71
2022/11/19 02:37:52;;;;;;;16.00;7.80;;;8.70;99.90;;;;;;4988331;28;20460;-71
2022/11/19 02:40:32;;;;;;;11.37;7.20;;;8.60;99.90;;;;;;4987726;28;20496;-71
2022/11/19 02:43:16;;;;;;;11.77;6.30;;;8.60;99.90;;;;;;4981819;28;20944;-71
2022/11/19 02:45:55;;;;;;;12.37;7.33;;;8.60;99.90;;;;;;4985396;28;20441;-72
2022/11/19 02:48:37;;;;;;;12.90;6.40;;;8.70;99.90;;;;;;4981881;28;21035;-71
2022/11/19 02:51:04;;;;;;;10.73;6.97;;;8.80;99.90;;;;;;4978274;28;20438;-72
2022/11/19 02:53:30;;;;;;;11.27;6.67;;;8.80;99.90;;;;;;4981991;28;20810;-72
2022/11/19 02:56:11;;;;;;;10.00;6.57;;;8.80;99.90;;;;;;4985862;28;20445;-71
2022/11/19 03:04:29;;;;;;;8.13;6.13;;;8.70;99.90;;;;;;4986437;28;20778;-72
2022/11/19 03:07:13;;;;;;;8.17;5.70;;;8.70;99.90;;;;;;4992870;28;20454;-71
2022/11/19 03:09:43;;;;;;;15.47;6.57;;;10.20;99.90;;;;;;4989120;28;20434;-71
2022/11/19 03:12:53;;;;;;;10.57;6.40;;;8.60;99.90;;;;;;4985121;28;20446;-71
2022/11/19 03:18:43;;;;;;;15.00;7.23;;;8.60;99.90;;;;;;4995426;28;20972;-71
2022/11/19 03:21:24;;;;;;;15.10;6.03;;;8.70;99.90;;;;;;4985223;28;20873;-71
2022/11/19 03:24:03;;;;;;;12.00;6.43;;;8.70;99.90;;;;;;4993655;28;20949;-70
2022/11/19 03:26:35;;;;;;;9.73;6.33;;;8.70;99.90;;;;;;4990912;28;20960;-69
2022/11/19 03:29:04;;;;;;;15.33;7.00;;;8.70;99.90;;;;;;4984600;28;20442;-69
2022/11/19 03:31:32;;;;;;;12.87;7.10;;;8.70;99.90;;;;;;4993169;28;20446;-71
2022/11/19 03:34:01;;;;;;;12.00;6.97;;;8.70;99.90;;;;;;4986863;28;20497;-70
2022/11/19 03:36:34;;;;;;;11.77;6.60;;;8.70;99.90;;;;;;4987425;28;20474;-72
2022/11/19 03:39:07;;;;;;;14.37;6.77;;;8.70;99.90;;;;;;4990508;28;21038;-71
2022/11/19 03:41:34;;;;;;;11.43;7.70;;;8.70;99.90;;;;;;4989542;28;20793;-69
2022/11/19 03:44:05;;;;;;;14.93;7.93;;;8.60;99.90;;;;;;4994795;28;20968;-71
2022/11/19 03:46:34;;;;;;;11.87;7.03;;;8.70;99.90;;;;;;4985119;28;20704;-70
2022/11/19 03:49:02;;;;;;;20.23;7.50;;;8.70;99.90;;;;;;4982169;28;20445;-71
2022/11/19 03:51:37;;;;;;;16.07;6.93;;;8.70;99.90;;;;;;4993171;28;20448;-72
2022/11/19 03:54:03;;;;;;;11.60;6.20;;;8.70;99.90;;;;;;4986708;28;20453;-71
2022/11/19 03:56:30;;;;;;;11.63;6.60;;;8.70;99.90;;;;;;4991411;28;20484;-71
2022/11/19 03:58:58;;;;;;;12.23;6.83;;;8.70;99.90;;;;;;4981639;28;20434;-71
2022/11/19 04:01:24;;;;;;;17.07;7.17;;;8.60;99.90;;;;;;4982967;28;20462;-70
2022/11/19 04:06:33;;;;;;;12.70;7.20;;;8.70;99.90;;;;;;4988734;28;20319;-70
2022/11/19 04:08:59;;;;;;;14.70;7.20;;;8.80;99.90;;;;;;4984819;28;20989;-70
2022/11/19 04:11:25;;;;;;;14.87;7.90;;;8.80;99.90;;;;;;4981692;28;20180;-70
2022/11/19 04:13:50;;;;;;;18.20;8.50;;;8.80;99.90;;;;;;4985302;28;20259;-69
2022/11/19 04:16:16;;;;;;;20.27;9.60;;;8.80;99.90;;;;;;4984842;28;20183;-70
2022/11/19 04:18:41;;;;;;;12.63;7.60;;;8.80;99.90;;;;;;4991434;28;20191;-69
2022/11/19 04:21:07;;;;;;;16.20;7.53;;;8.90;99.90;;;;;;4984163;28;20681;-69
2022/11/19 04:23:32;;;;;;;19.20;8.70;;;8.90;99.90;;;;;;4990315;28;20237;-70
2022/11/19 04:25:57;;;;;;;16.10;8.60;;;8.90;99.90;;;;;;4982155;28;20180;-70
2022/11/19 04:28:23;;;;;;;25.13;11.00;;;8.80;99.90;;;;;;4988098;28;20689;-70
2022/11/19 04:30:49;;;;;;;21.77;11.70;;;8.90;99.90;;;;;;4992029;28;20275;-69
2022/11/19 04:33:14;;;;;;;16.70;9.03;;;8.80;99.90;;;;;;4976982;28;20194;-71
2022/11/19 04:35:43;;;;;;;19.40;8.77;;;8.80;99.90;;;;;;4989905;28;20318;-69
2022/11/19 04:38:09;;;;;;;19.93;9.10;;;8.80;99.90;;;;;;4984576;28;20692;-69
2022/11/19 04:40:34;;;;;;;16.40;8.63;;;8.80;99.90;;;;;;4982572;28;20458;-69
2022/11/19 04:43:00;;;;;;;14.90;8.33;;;8.80;99.90;;;;;;4974862;28;20179;-69
2022/11/19 04:45:25;;;;;;;18.60;9.63;;;8.80;99.90;;;;;;4991298;28;20217;-70
2022/11/19 04:47:51;;;;;;;14.20;8.03;;;8.80;99.90;;;;;;4984043;28;20243;-70
2022/11/19 04:50:16;;;;;;;17.90;8.97;;;8.80;99.90;;;;;;4985112;28;20671;-69
2022/11/19 04:52:42;;;;;;;15.67;8.20;;;8.90;99.90;;;;;;4980110;28;20187;-69
2022/11/19 04:55:09;;;;;;;17.20;8.30;;;8.90;99.90;;;;;;4985706;28;20242;-69
2022/11/19 04:57:35;;;;;;;15.77;9.20;;;8.80;99.90;;;;;;4980964;28;20682;-68
2022/11/19 05:00:00;;;;;;;17.60;9.30;;;8.80;99.90;;;;;;4981629;28;20611;-70
2022/11/19 05:02:26;;;;;;;22.97;9.20;;;8.80;99.90;;;;;;4980863;28;20175;-69
2022/11/19 05:04:52;;;;;;;16.30;9.20;;;8.80;99.90;;;;;;4981890;28;20265;-69
2022/11/19 05:07:17;;;;;;;14.70;9.07;;;8.90;99.90;;;;;;4990543;28;20194;-70
2022/11/19 05:09:43;;;;;;;21.83;9.30;;;8.80;99.90;;;;;;4984441;28;20218;-69
2022/11/19 05:12:08;;;;;;;16.47;9.00;;;8.80;99.90;;;;;;4982814;28;20179;-69
2022/11/19 05:14:37;;;;;;;18.67;8.93;;;8.90;99.90;;;;;;4981105;28;20176;-69
2022/11/19 05:17:03;;;;;;;14.83;8.70;;;8.90;99.90;;;;;;4975532;28;20206;-69
2022/11/19 05:19:28;;;;;;;20.47;8.50;;;9.00;99.90;;;;;;4987443;28;20466;-69
2022/11/19 05:21:54;;;;;;;17.40;8.60;;;9.00;99.90;;;;;;4979238;28;20877;-69
2022/11/19 05:24:19;;;;;;;16.77;8.67;;;9.00;99.90;;;;;;4980722;28;20223;-69
2022/11/19 05:26:45;;;;;;;15.23;8.57;;;8.90;99.90;;;;;;4984881;28;20195;-69
2022/11/19 05:29:11;;;;;;;18.83;8.47;;;8.90;99.90;;;;;;4984903;28;20615;-70
2022/11/19 05:31:36;;;;;;;20.50;10.17;;;8.90;99.90;;;;;;4987163;28;20668;-69
2022/11/19 05:34:02;;;;;;;21.20;9.93;;;8.90;99.90;;;;;;4982556;28;20203;-69
2022/11/19 05:36:27;;;;;;;16.93;8.90;;;8.90;99.90;;;;;;4985725;28;20233;-69
2022/11/19 05:38:53;;;;;;;20.20;8.93;;;8.90;99.90;;;;;;4979412;28;20183;-69
2022/11/19 05:41:18;;;;;;;19.43;8.70;;;8.90;99.90;;;;;;4985111;28;20179;-72
2022/11/19 05:43:44;;;;;;;19.97;8.60;;;8.90;99.90;;;;;;4990063;28;20211;-71
2022/11/19 05:46:09;;;;;;;18.53;8.27;;;8.90;99.90;;;;;;4987910;28;20184;-70
2022/11/19 05:48:35;;;;;;;14.80;8.97;;;8.90;99.90;;;;;;4983280;28;20211;-71
2022/11/19 05:51:00;;;;;;;16.20;9.37;;;8.90;99.90;;;;;;4982693;28;20243;-70
2022/11/19 05:53:26;;;;;;;18.30;8.93;;;8.90;99.90;;;;;;4987552;28;20202;-72
2022/11/19 05:55:51;;;;;;;21.33;9.03;;;8.80;99.90;;;;;;4980808;28;20187;-71
2022/11/19 05:58:17;;;;;;;11.47;8.50;;;8.80;99.90;;;;;;4978086;28;20255;-72
2022/11/19 06:00:43;;;;;;;24.33;10.00;;;8.80;99.90;;;;;;4980649;28;20277;-72
2022/11/19 06:03:09;;;;;;;16.90;9.37;;;8.90;99.90;;;;;;4988006;28;20179;-71
2022/11/19 06:05:35;;;;;;;15.73;8.40;;;8.80;99.90;;;;;;4983905;28;20694;-70
2022/11/19 06:08:00;;;;;;;14.90;8.10;;;8.90;99.90;;;;;;4983065;28;20569;-71
2022/11/19 06:10:26;;;;;;;19.50;8.60;;;8.90;99.90;;;;;;4982574;28;20191;-71
2022/11/19 06:12:51;;;;;;;18.30;9.80;;;8.90;99.90;;;;;;4985879;28;20190;-72
2022/11/19 06:15:17;;;;;;;14.70;8.90;;;8.90;99.90;;;;;;4976160;28;20191;-72
2022/11/19 06:17:42;;;;;;;14.70;7.67;;;8.90;99.90;;;;;;4986773;28;20222;-71
2022/11/19 06:20:09;;;;;;;14.00;8.60;;;8.90;99.90;;;;;;4988298;28;20214;-71
2022/11/19 06:22:35;;;;;;;14.00;8.10;;;8.80;99.90;;;;;;4986985;28;20274;-70
2022/11/19 06:25:02;;;;;;;12.03;8.10;;;8.80;99.90;;;;;;4987759;28;20446;-71
2022/11/19 06:27:28;;;;;;;15.03;8.37;;;9.10;99.90;;;;;;4981834;28;20981;-71
2022/11/19 06:29:53;;;;;;;17.53;8.50;;;8.70;99.90;;;;;;4980143;28;20422;-72
2022/11/19 06:32:19;;;;;;;20.83;8.63;;;8.70;99.90;;;;;;4989620;28;20541;-72
2022/11/19 06:34:44;;;;;;;12.20;8.20;;;8.70;99.90;;;;;;4988373;28;20325;-71
2022/11/19 06:37:10;;;;;;;19.47;8.80;;;8.70;99.90;;;;;;4987945;28;20214;-72
2022/11/19 06:39:35;;;;;;;18.10;9.90;;;8.70;99.90;;;;;;4981031;28;20210;-71
2022/11/19 06:42:34;;;;;;;16.70;8.30;;;8.70;99.90;;;;;;4986449;28;20194;-71
2022/11/19 06:44:49;;;;;;;16.98;9.90;;;8.80;99.90;;;;;;4985801;28;20443;-72
2022/11/19 06:47:14;;;;;;;25.07;9.80;;;10.20;99.90;;;;;;4989221;28;20226;-71
2022/11/19 06:49:40;;;;;;;24.33;9.00;;;8.80;99.90;;;;;;4986203;28;20675;-72
2022/11/19 06:52:05;;;;;;;20.87;9.27;;;8.80;99.90;;;;;;4981322;28;20183;-71
2022/11/19 06:54:31;;;;;;;15.50;8.93;;;8.80;99.90;;;;;;4981360;28;20180;-71
2022/11/19 06:56:56;;;;;;;16.77;8.40;;;8.80;99.90;;;;;;4987914;28;20242;-71
2022/11/19 06:59:22;;;;;;;17.53;8.70;;;8.80;99.90;;;;;;5003587;22;20226;-72
2022/11/19 07:01:47;;;;;;;14.70;8.30;;;8.80;99.90;;;;;;4987237;28;20186;-72
2022/11/19 07:04:13;;;;;;;13.97;7.90;;;8.80;99.90;;;;;;5003992;28;20266;-71
2022/11/19 07:06:39;;;;;;;15.63;8.87;;;8.70;99.90;;;;;;4997864;28;20258;-75
2022/11/19 07:09:04;;;;;;;14.17;7.80;;;8.80;99.90;;;;;;4994140;28;20202;-74
2022/11/19 07:11:30;;;;;;;13.43;8.10;;;8.80;99.90;;;;;;5002295;28;20175;-72
2022/11/19 07:13:56;;;;;;;10.77;7.30;;;8.80;99.90;;;;;;5009530;28;20277;-74
2022/11/19 07:16:23;;;;;;;13.50;7.37;;;8.80;99.90;;;;;;4991540;28;20815;-74
2022/11/19 07:18:49;;;;;;;13.37;8.50;;;8.90;99.90;;;;;;4984057;28;20442;-74
2022/11/19 07:21:14;;;;;;;10.67;7.27;;;8.90;99.90;;;;;;4989906;28;20794;-72
2022/11/19 07:23:40;;;;;;;12.67;7.13;;;9.20;99.90;;;;;;4996768;28;20225;-74
2022/11/19 07:26:05;;;;;;;12.47;6.67;;;9.30;99.90;;;;;;4997119;28;20625;-73
2022/11/19 07:28:32;;;;;;;10.00;7.00;;;9.30;99.90;;;;;;5004684;28;20190;-74
2022/11/19 07:30:58;;;;;;;12.93;7.70;;;9.20;99.90;;;;;;4984825;28;20195;-73
2022/11/19 07:33:23;;;;;;;14.57;7.70;;;9.40;99.90;;;;;;4988456;28;20438;-71
2022/11/19 07:35:49;;;;;;;16.33;9.10;;;9.10;99.90;;;;;;4994945;28;20183;-72
2022/11/19 07:38:14;;;;;;;11.07;7.97;;;9.10;99.90;;;;;;4999973;28;20657;-74
2022/11/19 07:40:40;;;;;;;15.27;7.93;;;9.10;99.90;;;;;;4997797;28;20215;-72
2022/11/19 07:43:05;;;;;;;13.93;8.50;;;9.00;99.90;;;;;;4989011;28;20288;-72
2022/11/19 07:45:31;;;;;;;12.93;7.43;;;9.10;99.90;;;;;;5009794;28;20209;-74
2022/11/19 07:47:56;;;;;;;13.90;8.10;;;9.00;99.90;;;;;;4998942;28;20250;-73
2022/11/19 07:50:22;;;;;;;17.87;8.13;;;9.00;99.90;;;;;;4990212;28;20203;-72
2022/11/19 07:52:48;;;;;;;12.40;7.47;;;8.90;99.90;;;;;;5002326;28;20719;-72
2022/11/19 07:55:14;;;;;;;14.70;8.60;;;9.00;99.90;;;;;;4995715;28;20529;-72
2022/11/19 07:57:40;;;;;;;13.80;7.33;;;9.00;99.90;;;;;;4995422;28;20194;-73
2022/11/19 08:00:06;;;;;;;12.47;7.90;;;8.90;99.90;;;;;;5003119;28;20257;-72
2022/11/19 08:02:31;;;;;;;13.93;8.50;;;8.90;99.90;;;;;;4992640;28;20168;-72
2022/11/19 08:04:57;;;;;;;11.77;7.20;;;8.80;99.90;;;;;;4998951;28;20483;-71
2022/11/19 08:07:22;;;;;;;11.17;7.67;;;8.70;99.90;;;;;;5004019;28;20171;-73
2022/11/19 08:09:48;;;;;;;11.83;7.10;;;8.60;99.90;;;;;;4990955;28;20199;-74
2022/11/19 08:12:13;;;;;;;9.30;6.73;;;8.50;99.90;;;;;;4998464;28;20198;-72
2022/11/19 08:14:39;;;;;;;9.47;5.50;;;8.50;98.80;;;;;;5012922;28;20182;-72
2022/11/19 08:19:49;;;;;;;8.10;6.50;;;8.30;98.70;;;;;;5012830;28;20268;-72
2022/11/19 08:22:15;;;;;;;9.90;6.43;;;8.10;98.70;;;;;;5009016;28;20406;-70
2022/11/19 08:24:40;;;;;;;9.80;7.00;;;8.10;98.60;;;;;;5007555;28;20633;-72
2022/11/19 08:27:06;;;;;;;14.27;6.30;;;8.10;98.60;;;;;;4995781;28;20179;-72
2022/11/19 08:29:31;;;;;;;10.90;7.30;;;7.90;97.40;;;;;;4998670;28;20194;-72
2022/11/19 08:31:57;;;;;;;7.73;5.50;;;7.90;98.60;;;;;;4993531;28;20187;-72
2022/11/19 08:34:22;;;;;;;9.17;5.50;;;7.90;98.50;;;;;;4993143;28;20179;-72
2022/11/19 08:36:48;;;;;;;10.37;5.63;;;7.80;96.70;;;;;;4991760;28;20275;-72
2022/11/19 08:39:13;;;;;;;8.03;5.87;;;7.80;98.50;;;;;;4992912;28;20222;-71
2022/11/19 08:44:23;;;;;;;10.10;6.30;;;7.80;98.40;;;;;;4993035;28;20174;-72
2022/11/19 08:46:49;;;;;;;10.20;6.30;;;7.70;98.40;;;;;;4993588;28;20406;-74
2022/11/19 08:49:14;;;;;;;10.07;6.17;;;7.60;98.10;;;;;;5007373;28;20198;-72
2022/11/19 08:51:40;;;;;;;9.33;6.60;;;7.60;98.50;;;;;;4975450;28;20427;-72
2022/11/19 08:54:06;;;;;;;8.33;5.60;;;7.60;98.40;;;;;;4973661;28;20176;-72
2022/11/19 08:56:32;;;;;;;10.13;6.30;;;7.60;99.90;;;;;;4973692;28;20168;-72
2022/11/19 08:58:57;;;;;;;11.27;6.10;;;7.60;97.30;;;;;;4975136;28;20168;-73
2022/11/19 09:01:23;;;;;;;9.03;6.07;;;7.60;99.80;;;;;;4991167;28;20270;-72
2022/11/19 09:03:48;;;;;;;11.83;6.27;;;7.60;99.90;;;;;;5001981;28;20191;-73
2022/11/19 09:06:14;;;;;;;9.10;6.50;;;7.60;99.00;;;;;;5011073;28;20932;-73
2022/11/19 09:08:40;;;;;;;8.83;6.13;;;7.60;99.90;;;;;;4991510;28;20183;-72
2022/11/19 09:11:11;;;;;;;8.73;5.63;;;7.60;97.30;;;;;;4992496;28;20191;-72
2022/11/19 09:13:37;;;;;;;8.77;5.50;;;7.60;98.40;;;;;;4992890;28;20183;-72
2022/11/19 09:16:03;;;;;;;10.50;5.43;;;7.50;98.40;;;;;;4992708;28;20574;-72
2022/11/19 09:18:31;;;;;;;7.73;5.33;;;7.50;98.40;;;;;;4990883;28;20465;-72
2022/11/19 09:20:57;;;;;;;7.30;5.20;;;7.40;97.20;;;;;;4991623;28;20238;-72
2022/11/19 09:23:23;;;;;;;6.77;4.87;;;7.40;98.30;;;;;;5007207;28;20456;-72
2022/11/19 09:26:10;;;;;;;9.00;5.70;;;7.40;98.30;;;;;;5012224;28;20189;-74
2022/11/19 09:28:36;;;;;;;9.10;5.80;;;7.40;98.30;;;;;;5012188;28;20436;-72
2022/11/19 09:31:16;;;;;;;8.03;5.30;;;7.30;97.10;;;;;;4999182;28;20442;-72
2022/11/19 09:33:47;;;;;;;8.13;5.43;;;7.50;99.90;;;;;;4992411;28;20282;-73
2022/11/19 09:36:13;;;;;;;7.77;5.53;;;7.70;99.90;;;;;;4991933;28;20995;-72
2022/11/19 09:38:40;;;;;;;6.30;4.97;;;7.70;99.90;;;;;;4991344;28;20805;-72
2022/11/19 09:41:29;;;;;;;6.93;4.57;;;7.70;97.30;;;;;;5011166;28;20939;-72
2022/11/19 09:44:32;;;;;;;7.40;5.20;;;7.50;97.60;;;;;;5012018;28;20497;-72
2022/11/19 09:46:58;;;;;;;10.20;7.03;;;7.50;97.50;;;;;;4991534;28;20445;-74
2022/11/19 09:49:38;;;;;;;12.67;6.63;;;7.30;97.20;;;;;;5006386;28;20450;-72
2022/11/19 09:52:08;;;;;;;9.30;6.23;;;7.20;98.20;;;;;;4991875;28;20225;-71
2022/11/19 09:54:34;;;;;;;9.03;5.80;;;7.20;98.20;;;;;;4992181;28;20882;-72
2022/11/19 09:57:04;;;;;;;9.50;6.37;;;7.20;99.50;;;;;;4992099;28;20415;-72
2022/11/19 09:59:39;;;;;;;9.40;5.60;;;7.20;97.10;;;;;;4996343;28;20460;-71
2022/11/19 10:02:21;;;;;;;10.90;6.63;;;7.20;98.40;;;;;;4984256;28;20406;-71
2022/11/19 10:04:49;;;;;;;10.40;6.23;;;7.20;98.50;;;;;;4991301;28;20422;-72
2022/11/19 10:07:29;;;;;;;10.07;6.67;;;7.30;98.30;;;;;;4991844;28;20423;-72
2022/11/19 10:10:20;;;;;;;9.60;6.30;;;7.30;99.90;;;;;;4991588;28;20442;-72
2022/11/19 10:13:22;;;;;;;10.97;5.77;;;7.40;99.90;;;;;;4980972;28;20494;-71
2022/11/19 10:16:01;;;;;;;7.40;5.30;;;7.50;99.90;;;;;;4972117;28;20429;-72
2022/11/19 10:18:35;;;;;;;9.40;5.97;;;7.20;88.50;;;;;;4971078;28;20801;-71
2022/11/19 10:21:17;;;;;;;9.70;6.37;;;7.20;98.20;;;;;;4972181;28;20474;-71
2022/11/19 10:24:02;;;;;;;9.00;5.90;;;7.30;99.90;;;;;;4978639;28;20426;-72
2022/11/19 10:26:38;;;;;;;9.50;5.47;;;7.50;99.90;;;;;;5011102;28;20572;-72
2022/11/19 10:29:18;;;;;;;8.23;6.00;;;7.50;98.90;;;;;;4998773;28;21122;-72
2022/11/19 10:31:46;;;;;;;8.20;6.00;;;7.50;99.90;;;;;;4992984;28;20406;-71
2022/11/19 10:34:32;;;;;;;9.60;6.20;;;7.50;98.40;;;;;;4989702;28;21047;-72
2022/11/19 10:37:08;;;;;;;11.90;6.30;;;7.50;98.40;;;;;;4979041;28;20430;-73
2022/11/19 10:39:39;;;;;;;29.83;11.50;;;7.60;99.90;;;;;;4971648;28;20984;-73
2022/11/19 10:42:28;;;;;;;17.03;9.80;;;7.70;99.90;;;;;;4971750;28;20928;-72
2022/11/19 10:44:56;;;;;;;16.03;10.10;;;7.80;99.90;;;;;;4971474;28;20430;-72
2022/11/19 10:47:46;;;;;;;20.07;9.70;;;7.70;99.90;;;;;;4972018;28;20554;-72
2022/11/19 10:50:20;;;;;;;17.73;9.90;;;7.70;98.40;;;;;;4971044;28;20442;-71
2022/11/19 10:53:13;;;;;;;18.37;10.73;;;7.70;98.50;;;;;;4972239;28;20411;-71
2022/11/19 10:55:41;;;;;;;16.73;9.30;;;7.60;98.40;;;;;;4990980;28;20422;-73
2022/11/19 10:58:29;;;;;;;15.50;9.70;;;7.60;94.70;;;;;;4972585;28;20437;-71
2022/11/19 11:00:57;;;;;;;13.50;9.50;;;7.50;95.20;;;;;;4985946;28;20474;-72
2022/11/19 11:03:32;;;;;;;18.63;9.80;;;7.40;94.70;;;;;;4998191;28;20410;-72
2022/11/19 11:06:05;;;;;;;17.20;9.77;;;7.40;93.40;;;;;;5009737;28;20456;-72
2022/11/19 11:08:47;;;;;;;19.60;11.27;;;7.40;95.60;;;;;;4986840;28;20431;-71
2022/11/19 11:14:50;;;;;;;20.57;13.03;;;7.30;92.90;;;;;;4997748;28;21422;-72
2022/11/19 11:16:57;;;;;;;23.23;14.07;;;7.30;98.40;;;;;;5009767;28;20236;-72
2022/11/19 11:19:22;;;;;;;20.67;12.30;;;7.30;97.10;;;;;;5000855;28;22820;-72
2022/11/19 11:21:53;;;;;;;23.83;12.43;;;7.30;98.30;;;;;;4994005;28;20529;-72
2022/11/19 11:24:20;;;;;;;23.87;12.93;;;7.30;96.70;;;;;;5003619;28;20258;-72
2022/11/19 11:26:45;;;;;;;22.83;11.43;;;7.30;98.00;;;;;;5004075;28;20462;-71
2022/11/19 11:29:11;;;;;;;19.17;11.67;;;7.20;94.60;;;;;;5013008;28;21309;-71
2022/11/19 11:31:41;;;;;;;20.43;11.63;;;7.10;96.20;;;;;;4995458;28;20175;-72
2022/11/19 11:34:26;;;;;;;24.10;11.80;;;7.10;93.90;;;;;;5004352;28;20197;-72
2022/11/19 11:36:52;;;;;;;25.23;13.33;;;7.00;98.10;;;;;;5004994;28;20428;-72
2022/11/19 11:39:30;;;;;;;25.10;12.80;;;7.00;98.20;;;;;;5011155;28;20785;-71
2022/11/19 11:41:58;;;;;;;25.90;13.90;;;7.10;98.30;;;;;;5003593;28;20463;-71
2022/11/19 11:44:27;;;;;;;28.87;13.20;;;7.70;98.40;;;;;;5009465;28;20436;-71
2022/11/19 11:46:56;;;;;;;30.83;14.70;;;7.20;98.30;;;;;;4990196;28;20529;-71
2022/11/19 11:49:32;;;;;;;21.30;12.30;;;7.20;98.30;;;;;;5012552;28;20532;-71
2022/11/19 11:52:05;;;;;;;23.30;12.90;;;7.20;98.30;;;;;;4995631;28;20779;-73
2022/11/19 11:54:31;;;;;;;23.90;12.43;;;7.10;94.80;;;;;;5009611;28;20425;-71
2022/11/19 11:57:16;;;;;;;21.80;11.57;;;7.10;98.40;;;;;;5005464;28;20781;-71
2022/11/19 11:59:43;;;;;;;18.80;10.20;;;7.00;97.00;;;;;;5011009;28;20214;-72
2022/11/19 12:02:20;;;;;;;17.23;9.10;;;7.00;99.90;;;;;;4991051;28;20496;-71
2022/11/19 12:04:45;;;;;;;18.10;9.40;;;7.20;99.90;;;;;;4996110;28;20441;-70
2022/11/19 12:07:37;;;;;;;10.93;7.60;;;7.20;99.90;;;;;;5012774;28;21135;-72
2022/11/19 12:10:17;;;;;;;12.17;7.33;;;7.20;97.20;;;;;;5003711;28;20202;-71
2022/11/19 12:12:56;;;;;;;11.00;7.60;;;7.20;98.30;;;;;;5001892;28;20549;-71
2022/11/19 12:15:50;;;;;;;12.47;7.77;;;7.10;98.20;;;;;;5003690;28;20438;-71
2022/11/19 12:18:21;;;;;;;12.17;8.13;;;7.10;98.30;;;;;;5006440;28;20447;-72
2022/11/19 12:20:50;;;;;;;13.20;8.63;;;7.00;99.50;;;;;;5007490;28;20460;-72
2022/11/19 12:23:54;;;;;;;14.70;8.93;;;7.00;99.90;;;;;;5002877;28;20974;-71
2022/11/19 12:26:38;;;;;;;13.50;8.53;;;7.00;98.10;;;;;;4994812;28;20495;-72
2022/11/19 12:29:26;;;;;;;13.80;8.43;;;7.00;99.90;;;;;;4992453;28;20552;-71
2022/11/19 12:32:02;;;;;;;16.03;9.33;;;7.00;98.80;;;;;;4991871;28;20427;-73
2022/11/19 12:35:02;;;;;;;24.20;8.87;;;7.00;99.90;;;;;;4990028;28;20430;-72
2022/11/19 12:38:00;;;;;;;12.10;6.60;;;7.00;99.90;;;;;;5003077;28;20440;-73
2022/11/19 12:40:44;;;;;;;10.67;6.90;;;7.00;99.30;;;;;;4975743;28;20480;-71
2022/11/19 12:43:44;;;;;;;11.73;7.07;;;7.10;99.90;;;;;;4973000;28;20790;-72
2022/11/19 12:46:28;;;;;;;10.47;6.90;;;7.10;99.90;;;;;;5002661;28;20513;-71
2022/11/19 12:49:48;;;;;;;15.43;7.37;;;7.00;97.00;;;;;;5009654;28;20500;-70
2022/11/19 12:52:13;;;;;;;10.60;7.30;;;7.00;99.90;;;;;;4982162;28;20445;-72
2022/11/19 12:55:12;;;;;;;11.40;8.30;;;7.10;99.90;;;;;;5003192;28;20422;-72
2022/11/19 12:58:08;;;;;;;13.10;7.80;;;7.10;99.90;;;;;;5003212;28;20209;-72
2022/11/19 13:00:38;;;;;;;14.00;7.90;;;7.10;99.90;;;;;;5000391;28;20906;-72
2022/11/19 13:03:20;;;;;;;13.60;7.93;;;6.90;99.90;;;;;;5001638;28;20575;-72
2022/11/19 13:05:48;;;;;;;14.47;8.63;;;6.90;99.30;;;;;;5006965;28;20440;-71
2022/11/19 13:08:39;;;;;;;17.03;9.67;;;6.80;99.90;;;;;;5011813;28;20437;-72
2022/11/19 13:11:22;;;;;;;16.23;9.60;;;6.90;99.90;;;;;;4999362;28;20500;-72
2022/11/19 13:13:59;;;;;;;16.73;10.60;;;6.90;99.90;;;;;;5000807;28;20510;-73
2022/11/19 13:16:27;;;;;;;19.60;11.23;;;6.90;99.90;;;;;;4972359;28;20407;-72
2022/11/19 13:19:03;;;;;;;22.93;13.50;;;6.90;99.90;;;;;;4992003;28;20523;-72
2022/11/19 13:21:33;;;;;;;23.83;13.47;;;6.90;99.90;;;;;;4996602;28;20994;-72
2022/11/19 13:24:24;;;;;;;36.03;16.70;;;6.90;99.90;;;;;;5006568;28;20920;-71
2022/11/19 13:26:50;;;;;;;19.93;10.60;;;7.00;99.90;;;;;;5007580;28;20468;-72
2022/11/19 13:29:24;;;;;;;16.40;11.20;;;7.00;99.90;;;;;;5010466;28;20433;-72
2022/11/19 13:32:01;;;;;;;17.40;9.93;;;6.90;99.90;;;;;;4991045;28;20431;-72
2022/11/19 13:34:36;;;;;;;11.30;8.90;;;6.90;99.90;;;;;;5043103;22;20496;-71
2022/11/19 13:37:23;;;;;;;12.80;9.50;;;6.90;99.90;;;;;;5024947;28;20826;-71
2022/11/19 13:40:04;;;;;;;11.90;8.80;;;6.80;99.90;;;;;;5028534;28;20567;-72